Time;durP1;ratioP1;P1;durP2;ratioP2;P2;SDS_P1;SDS_P2;PMS_P1;PMS_P2;Temp;Humidity;BMP_temperature;BMP_pressure;BME280_temperature;BME280_humidity;BME280_pressure;Samples;Min_cycle;Max_cycle;Signal;HPM_P1;HPM_P2
2022/06/16 00:01:04;;;;;;;5.55;3.83;;;16.50;99.90;;;;;;4896703;29;20271;-86
2022/06/16 00:03:31;;;;;;;7.00;3.55;;;16.40;99.90;;;;;;4896678;29;20859;-85
2022/06/16 00:05:57;;;;;;;5.07;3.60;;;16.40;99.90;;;;;;4896935;29;20208;-85
2022/06/16 00:08:24;;;;;;;5.88;3.80;;;16.40;99.90;;;;;;4913558;29;20218;-86
2022/06/16 00:13:34;;;;;;;4.55;3.95;;;16.20;99.90;;;;;;4903658;29;20198;-85
2022/06/16 00:16:02;;;;;;;4.40;3.95;;;16.20;99.90;;;;;;4899417;29;20626;-85
2022/06/16 00:18:30;;;;;;;7.25;3.65;;;16.20;99.90;;;;;;4896315;29;20323;-85
2022/06/16 00:20:57;;;;;;;5.47;3.83;;;16.10;99.90;;;;;;4900914;29;20210;-86
2022/06/16 00:23:24;;;;;;;5.75;2.95;;;16.10;99.90;;;;;;4915058;29;20258;-85
2022/06/16 00:25:51;;;;;;;5.28;3.28;;;16.00;99.90;;;;;;4907181;29;20881;-84
2022/06/16 00:28:18;;;;;;;4.15;3.22;;;16.00;99.90;;;;;;4895548;29;20631;-84
2022/06/16 00:30:45;;;;;;;5.72;4.20;;;16.00;99.90;;;;;;4895812;29;20257;-85
2022/06/16 00:33:13;;;;;;;6.80;4.20;;;16.00;99.90;;;;;;4899668;29;20205;-84
2022/06/16 00:35:40;;;;;;;4.78;4.00;;;15.90;99.90;;;;;;4913937;29;20217;-85
2022/06/16 00:38:07;;;;;;;3.78;3.47;;;15.90;99.90;;;;;;4895887;29;20215;-84
2022/06/16 00:40:34;;;;;;;5.90;3.90;;;15.80;99.90;;;;;;4893409;29;20979;-85
2022/06/16 00:43:01;;;;;;;3.97;2.83;;;15.80;99.90;;;;;;4892210;29;20211;-85
2022/06/16 00:45:56;;;;;;;4.25;3.53;;;15.80;99.90;;;;;;4894224;29;20227;-85
2022/06/16 00:48:30;;;;;;;3.88;2.78;;;15.70;99.90;;;;;;4878582;29;20664;-85
2022/06/16 00:51:04;;;;;;;3.22;2.85;;;15.70;99.90;;;;;;4892942;29;20207;-84
2022/06/16 00:53:33;;;;;;;3.78;2.88;;;15.70;99.90;;;;;;4892709;29;20536;-86
2022/06/16 00:56:00;;;;;;;3.63;3.10;;;15.60;99.90;;;;;;4893066;29;20211;-85
2022/06/16 00:58:28;;;;;;;4.65;3.20;;;15.50;99.90;;;;;;4894395;29;20215;-87
2022/06/16 01:00:55;;;;;;;3.88;3.13;;;15.50;99.90;;;;;;4893710;29;20196;-84
2022/06/16 01:06:20;;;;;;;3.22;2.92;;;15.40;99.90;;;;;;4904097;29;20507;-84
2022/06/16 01:08:49;;;;;;;3.00;2.70;;;15.30;99.90;;;;;;4912289;29;20265;-85
2022/06/16 01:14:15;;;;;;;3.97;3.00;;;15.20;99.90;;;;;;4906202;29;20187;-84
2022/06/16 01:16:46;;;;;;;4.40;2.55;;;15.20;99.90;;;;;;4909898;29;20615;-84
2022/06/16 01:19:30;;;;;;;3.47;2.63;;;15.20;99.90;;;;;;4896216;29;20218;-84
2022/06/16 01:22:06;;;;;;;3.40;2.58;;;15.10;99.90;;;;;;4878894;29;20192;-84
2022/06/16 01:25:00;;;;;;;3.83;2.78;;;15.10;99.90;;;;;;4896620;29;20249;-85
2022/06/16 01:27:59;;;;;;;3.53;3.10;;;15.10;99.90;;;;;;4897157;29;20499;-84
2022/06/16 01:30:33;;;;;;;3.70;3.00;;;15.10;99.90;;;;;;4858052;29;20203;-83
2022/06/16 01:33:07;;;;;;;2.75;2.55;;;15.10;99.90;;;;;;4897682;29;20224;-84
2022/06/16 01:35:41;;;;;;;2.83;2.60;;;15.00;99.90;;;;;;4897039;29;20207;-85
2022/06/16 01:38:14;;;;;;;3.33;3.00;;;15.00;99.90;;;;;;4897947;29;20214;-85
2022/06/16 01:40:47;;;;;;;3.23;2.73;;;15.00;99.90;;;;;;4901330;29;20209;-85
2022/06/16 01:43:19;;;;;;;3.53;3.20;;;14.90;99.90;;;;;;4901568;29;20552;-84
2022/06/16 01:45:54;;;;;;;5.93;3.50;;;14.80;99.90;;;;;;4901549;29;20298;-85
2022/06/16 01:48:22;;;;;;;4.57;3.30;;;14.80;99.90;;;;;;4900319;29;20241;-84
2022/06/16 01:50:55;;;;;;;3.53;3.07;;;14.70;99.90;;;;;;4900867;29;20215;-85
2022/06/16 01:53:27;;;;;;;3.90;3.05;;;14.70;99.90;;;;;;4910068;29;20199;-85
2022/06/16 01:56:02;;;;;;;4.00;3.05;;;14.70;99.90;;;;;;4914969;29;20267;-85
2022/06/16 01:58:33;;;;;;;5.30;3.80;;;14.60;99.90;;;;;;4910487;29;20195;-87
2022/06/16 02:01:07;;;;;;;4.10;3.10;;;14.60;99.90;;;;;;4906518;29;20278;-85
2022/06/16 02:03:38;;;;;;;4.70;3.67;;;14.60;99.90;;;;;;4923657;29;20274;-83
2022/06/16 02:06:12;;;;;;;7.07;3.90;;;14.50;99.90;;;;;;4924978;29;20234;-86
2022/06/16 02:08:42;;;;;;;4.40;3.55;;;14.50;99.90;;;;;;4923767;29;20214;-83
2022/06/16 02:11:15;;;;;;;4.47;4.07;;;14.50;99.90;;;;;;4917432;29;20266;-85
2022/06/16 02:13:46;;;;;;;5.23;3.80;;;14.50;99.90;;;;;;4917107;29;20203;-83
2022/06/16 02:16:20;;;;;;;5.77;3.97;;;14.50;99.90;;;;;;4912320;29;20219;-85
2022/06/16 02:18:47;;;;;;;5.38;4.40;;;14.50;99.90;;;;;;4916610;29;20281;-86
2022/06/16 02:21:20;;;;;;;5.03;3.53;;;14.50;99.90;;;;;;4917983;29;20238;-85
2022/06/16 02:23:47;;;;;;;4.40;3.50;;;14.50;99.90;;;;;;4916346;29;20714;-85
2022/06/16 02:26:15;;;;;;;4.73;3.33;;;14.50;99.90;;;;;;4914775;29;20368;-86
2022/06/16 02:28:45;;;;;;;5.13;4.40;;;14.40;99.90;;;;;;4915449;29;20276;-86
2022/06/16 02:31:45;;;;;;;5.20;3.87;;;14.50;99.90;;;;;;4915034;29;20602;-86
2022/06/16 02:34:24;;;;;;;3.93;3.40;;;14.50;99.90;;;;;;4897626;29;20828;-85
2022/06/16 02:37:15;;;;;;;3.97;3.33;;;14.50;99.90;;;;;;4895543;29;20212;-86
2022/06/16 02:40:01;;;;;;;4.10;3.27;;;14.50;99.90;;;;;;4896010;29;20298;-85
2022/06/16 02:42:33;;;;;;;3.97;3.63;;;14.50;99.90;;;;;;4895301;29;20310;-86
2022/06/16 02:45:11;;;;;;;5.53;4.03;;;14.40;99.90;;;;;;4897464;29;20234;-85
2022/06/16 02:47:47;;;;;;;6.15;3.65;;;14.40;99.90;;;;;;4916623;29;20673;-85
2022/06/16 02:50:23;;;;;;;4.17;3.23;;;14.40;99.90;;;;;;4917215;29;20368;-87
2022/06/16 02:52:58;;;;;;;3.37;3.07;;;14.40;99.90;;;;;;4917550;29;20208;-85
2022/06/16 02:55:31;;;;;;;3.73;3.20;;;14.30;99.90;;;;;;4903619;29;20313;-84
2022/06/16 02:58:01;;;;;;;3.53;3.00;;;14.20;99.90;;;;;;4896409;29;21015;-85
2022/06/16 03:00:34;;;;;;;2.67;2.47;;;14.20;99.90;;;;;;4913675;29;20207;-85
2022/06/16 03:03:17;;;;;;;3.80;3.17;;;14.20;99.90;;;;;;4916921;29;20213;-85
2022/06/16 03:05:45;;;;;;;3.07;2.77;;;14.20;99.90;;;;;;4911593;29;20314;-86
2022/06/16 03:08:12;;;;;;;3.63;3.30;;;14.10;99.90;;;;;;4890530;29;20231;-85
2022/06/16 03:10:54;;;;;;;4.73;3.40;;;14.10;99.90;;;;;;4896392;29;20217;-85
2022/06/16 03:13:23;;;;;;;4.07;3.63;;;14.10;99.90;;;;;;4900238;29;20634;-86
2022/06/16 03:15:52;;;;;;;4.73;3.43;;;14.10;99.90;;;;;;4915887;29;20226;-86
2022/06/16 03:18:20;;;;;;;3.53;3.20;;;14.10;99.90;;;;;;4916115;29;20217;-86
2022/06/16 03:20:49;;;;;;;4.47;3.17;;;14.00;99.90;;;;;;4917297;29;20263;-84
2022/06/16 03:23:17;;;;;;;4.20;3.50;;;14.00;99.90;;;;;;4916493;29;20226;-86
2022/06/16 03:25:44;;;;;;;3.73;3.20;;;14.00;99.90;;;;;;4916253;29;20230;-85
2022/06/16 03:28:12;;;;;;;4.60;4.07;;;14.00;99.90;;;;;;4915796;29;20217;-83
2022/06/16 03:30:41;;;;;;;4.27;3.50;;;14.00;99.90;;;;;;4897738;29;20208;-85
2022/06/16 03:33:10;;;;;;;3.43;3.13;;;14.00;99.90;;;;;;4897673;29;20607;-85
2022/06/16 03:35:38;;;;;;;3.77;3.13;;;14.00;99.90;;;;;;4898011;29;20986;-86
2022/06/16 03:38:08;;;;;;;3.77;3.10;;;14.00;99.90;;;;;;4897651;29;20693;-82
2022/06/16 03:40:35;;;;;;;4.47;3.43;;;14.00;99.90;;;;;;4897598;29;20203;-85
2022/06/16 03:43:05;;;;;;;3.10;2.67;;;14.00;99.90;;;;;;4897588;29;20565;-85
2022/06/16 03:45:32;;;;;;;4.50;3.77;;;14.00;99.90;;;;;;4901973;29;20222;-85
2022/06/16 03:47:59;;;;;;;4.97;3.77;;;14.00;99.90;;;;;;4915933;29;20253;-84
2022/06/16 03:50:26;;;;;;;3.97;3.60;;;14.00;99.90;;;;;;4901958;29;20660;-85
2022/06/16 03:52:53;;;;;;;4.73;3.60;;;13.90;99.90;;;;;;4897158;29;20226;-83
2022/06/16 03:55:21;;;;;;;6.67;5.57;;;13.90;99.90;;;;;;4911366;29;20235;-85
2022/06/16 03:57:48;;;;;;;5.77;5.17;;;14.00;99.90;;;;;;4906637;29;20234;-85
2022/06/16 04:00:16;;;;;;;8.95;5.15;;;14.00;99.90;;;;;;4897994;29;20234;-86
2022/06/16 04:02:43;;;;;;;5.90;5.27;;;13.90;99.90;;;;;;4897550;29;20789;-85
2022/06/16 04:05:10;;;;;;;6.47;5.63;;;13.90;99.90;;;;;;4897988;29;20242;-85
2022/06/16 04:07:37;;;;;;;5.57;4.83;;;13.90;99.90;;;;;;4897821;29;20203;-85
2022/06/16 04:10:06;;;;;;;5.90;4.40;;;13.90;99.90;;;;;;4897904;29;20275;-85
2022/06/16 04:12:34;;;;;;;5.63;5.00;;;13.90;99.90;;;;;;4897651;29;20226;-84
2022/06/16 04:15:01;;;;;;;5.80;4.93;;;13.90;99.90;;;;;;4897275;29;20211;-85
2022/06/16 04:17:29;;;;;;;7.40;6.30;;;13.90;99.90;;;;;;4896921;29;20294;-84
2022/06/16 04:20:14;;;;;;;7.80;5.47;;;14.00;99.90;;;;;;4896916;29;20207;-85
2022/06/16 04:22:41;;;;;;;6.17;5.20;;;14.00;99.90;;;;;;4896747;29;20211;-85
2022/06/16 04:25:13;;;;;;;6.40;5.77;;;14.00;99.90;;;;;;4894649;29;20229;-85
2022/06/16 04:27:41;;;;;;;5.73;5.23;;;14.10;99.90;;;;;;4898208;29;20215;-85
2022/06/16 04:30:10;;;;;;;6.40;5.80;;;14.20;99.90;;;;;;4896729;29;20200;-85
2022/06/16 04:32:37;;;;;;;8.33;5.77;;;14.30;99.90;;;;;;4896119;29;20207;-82
2022/06/16 04:35:05;;;;;;;6.93;6.23;;;14.30;99.90;;;;;;4896298;29;20215;-83
2022/06/16 04:37:32;;;;;;;7.57;6.77;;;14.40;99.90;;;;;;4896380;29;20211;-85
2022/06/16 04:39:58;;;;;;;8.43;6.73;;;14.40;99.90;;;;;;4896078;29;20314;-83
2022/06/16 04:42:25;;;;;;;7.20;6.10;;;14.40;99.90;;;;;;4895899;29;20213;-83
2022/06/16 04:44:54;;;;;;;6.00;5.40;;;14.40;99.90;;;;;;4912782;29;20230;-84
2022/06/16 04:47:20;;;;;;;7.93;6.03;;;14.40;99.90;;;;;;4914759;29;20242;-83
2022/06/16 04:49:49;;;;;;;6.77;6.07;;;14.50;99.90;;;;;;4899575;29;20210;-82
2022/06/16 04:52:16;;;;;;;9.73;6.93;;;14.50;99.90;;;;;;4895853;29;20291;-84
2022/06/16 04:54:44;;;;;;;6.30;5.70;;;14.70;99.90;;;;;;4896449;29;20327;-83
2022/06/16 04:57:11;;;;;;;7.23;6.00;;;14.80;99.90;;;;;;4897052;29;20227;-84
2022/06/16 04:59:38;;;;;;;7.23;6.10;;;14.90;99.90;;;;;;4896189;29;20192;-84
2022/06/16 05:02:07;;;;;;;12.27;7.13;;;15.20;99.90;;;;;;4896529;29;20509;-83
2022/06/16 05:04:34;;;;;;;6.57;5.38;;;15.50;99.90;;;;;;4904267;29;20276;-84
2022/06/16 05:07:01;;;;;;;6.15;5.55;;;15.90;99.90;;;;;;4915497;29;20203;-85
2022/06/16 05:09:28;;;;;;;5.90;5.07;;;16.30;99.90;;;;;;4910220;29;20214;-83
2022/06/16 05:11:55;;;;;;;5.05;4.45;;;16.80;99.90;;;;;;4896455;29;20215;-84
2022/06/16 05:14:23;;;;;;;6.63;5.28;;;17.20;99.90;;;;;;4906672;29;20318;-84
2022/06/16 05:16:51;;;;;;;7.03;5.55;;;17.60;99.90;;;;;;4918360;29;20981;-82
2022/06/16 05:19:19;;;;;;;6.97;4.70;;;18.00;99.90;;;;;;4918329;29;20202;-85
2022/06/16 05:21:46;;;;;;;8.65;5.50;;;18.30;99.90;;;;;;4918873;29;20234;-84
2022/06/16 05:24:13;;;;;;;5.47;4.95;;;18.60;99.90;;;;;;4902353;29;20211;-85
2022/06/16 05:26:40;;;;;;;5.65;5.03;;;18.90;99.90;;;;;;4899405;29;20235;-83
2022/06/16 05:29:07;;;;;;;6.20;4.38;;;19.30;99.90;;;;;;4901310;29;20321;-83
2022/06/16 05:31:36;;;;;;;6.53;4.78;;;19.60;99.90;;;;;;4897716;29;20290;-83
2022/06/16 05:34:03;;;;;;;7.78;5.30;;;20.00;99.90;;;;;;4905733;29;20266;-84
2022/06/16 05:36:32;;;;;;;7.50;4.55;;;20.30;99.90;;;;;;4918717;29;21069;-84
2022/06/16 05:38:59;;;;;;;5.45;4.25;;;20.60;99.90;;;;;;4900258;29;20330;-84
2022/06/16 05:41:26;;;;;;;5.80;4.47;;;20.90;99.90;;;;;;4898478;29;20211;-84
2022/06/16 05:43:52;;;;;;;4.88;3.97;;;21.20;99.90;;;;;;4898537;29;20255;-85
2022/06/16 05:46:21;;;;;;;6.78;3.67;;;21.50;99.90;;;;;;4898892;29;20239;-84
2022/06/16 05:48:48;;;;;;;3.50;2.58;;;21.90;99.90;;;;;;4899314;29;20207;-84
2022/06/16 05:51:16;;;;;;;5.28;3.50;;;22.30;99.90;;;;;;4895741;29;20271;-85
2022/06/16 05:53:45;;;;;;;6.55;3.17;;;22.40;99.90;;;;;;4895492;29;20691;-85
2022/06/16 05:56:12;;;;;;;7.07;3.25;;;22.70;99.90;;;;;;4894793;29;20218;-85
2022/06/16 05:58:40;;;;;;;4.57;2.50;;;23.00;99.90;;;;;;4894944;29;20230;-84
2022/06/16 06:01:07;;;;;;;3.30;2.65;;;23.30;99.90;;;;;;4903495;29;20242;-84
2022/06/16 06:03:34;;;;;;;2.60;2.33;;;23.50;99.90;;;;;;4913481;29;20636;-84
2022/06/16 06:06:01;;;;;;;6.07;2.53;;;23.40;99.90;;;;;;4913780;29;20250;-85
2022/06/16 06:16:58;;;;;;;4.45;3.28;;;24.40;99.90;;;;;;4891836;29;20206;-84
2022/06/16 06:19:25;;;;;;;5.53;3.55;;;24.10;99.90;;;;;;4899704;29;20215;-84
2022/06/16 06:22:02;;;;;;;3.97;2.38;;;24.30;99.90;;;;;;4899747;29;20207;-84
2022/06/16 06:24:32;;;;;;;3.95;2.22;;;24.50;99.90;;;;;;4899456;29;20205;-84
2022/06/16 06:27:03;;;;;;;3.83;3.08;;;24.90;99.90;;;;;;4899985;29;20241;-83
2022/06/16 06:29:30;;;;;;;6.43;2.78;;;24.70;99.90;;;;;;4899095;29;20231;-87
2022/06/16 06:31:58;;;;;;;3.50;2.72;;;24.90;99.90;;;;;;4900090;29;20196;-86
2022/06/16 06:34:25;;;;;;;5.03;2.75;;;24.80;99.90;;;;;;4896990;29;20512;-85
2022/06/16 06:36:52;;;;;;;6.10;3.38;;;25.10;99.90;;;;;;4896469;29;20207;-86
2022/06/16 06:39:19;;;;;;;4.00;2.67;;;25.20;99.90;;;;;;4896282;29;20207;-86
2022/06/16 06:41:45;;;;;;;4.63;2.60;;;25.50;99.90;;;;;;4908686;29;20568;-86
2022/06/16 06:44:14;;;;;;;4.32;3.05;;;25.40;99.90;;;;;;4897097;29;20311;-85
2022/06/16 06:46:41;;;;;;;5.60;2.95;;;25.60;99.90;;;;;;4897702;29;20255;-85
2022/06/16 06:49:09;;;;;;;6.50;3.47;;;25.70;99.90;;;;;;4896867;29;20870;-86
2022/06/16 06:51:36;;;;;;;3.30;3.00;;;25.40;99.90;;;;;;4896220;29;20234;-87
2022/06/16 06:54:04;;;;;;;4.57;3.08;;;25.50;99.90;;;;;;4893931;29;20334;-82
2022/06/16 06:56:32;;;;;;;4.47;2.67;;;25.80;99.90;;;;;;4895896;29;20610;-82
2022/06/16 06:59:03;;;;;;;7.03;3.03;;;26.10;99.90;;;;;;4895062;29;20580;-84
2022/06/16 07:01:34;;;;;;;6.93;3.38;;;25.90;99.90;;;;;;4895114;29;20215;-82
2022/06/16 07:04:02;;;;;;;4.20;2.65;;;25.80;99.90;;;;;;4894488;29;20585;-85
2022/06/16 07:06:29;;;;;;;5.20;3.35;;;26.00;99.90;;;;;;4896009;29;20291;-84
2022/06/16 07:08:57;;;;;;;5.20;2.83;;;26.10;99.90;;;;;;4918257;29;20588;-87
2022/06/16 07:11:24;;;;;;;3.38;2.85;;;26.00;99.90;;;;;;4923999;29;20678;-83
2022/06/16 07:13:51;;;;;;;3.13;2.25;;;25.90;99.90;;;;;;4924219;29;20245;-86
2022/06/16 07:16:19;;;;;;;5.70;2.38;;;26.30;99.90;;;;;;4919569;29;20293;-85
2022/06/16 07:18:49;;;;;;;3.22;1.92;;;26.70;99.90;;;;;;4930762;29;20213;-84
2022/06/16 07:21:16;;;;;;;2.97;1.85;;;26.90;99.90;;;;;;4923101;29;20221;-87
2022/06/16 07:23:43;;;;;;;3.35;2.40;;;27.10;99.90;;;;;;4930794;29;20218;-85
2022/06/16 07:26:12;;;;;;;2.60;1.80;;;27.00;99.90;;;;;;4921700;29;20233;-83
2022/06/16 07:28:39;;;;;;;4.05;2.00;;;27.20;99.90;;;;;;4925154;29;20206;-85
2022/06/16 07:31:08;;;;;;;3.00;1.85;;;27.40;99.90;;;;;;4925524;29;20249;-81
2022/06/16 07:33:36;;;;;;;3.85;1.73;;;27.20;99.90;;;;;;4923573;29;20300;-84
2022/06/16 07:36:05;;;;;;;2.03;1.70;;;27.00;99.90;;;;;;4913976;29;20804;-85
2022/06/16 07:38:33;;;;;;;2.83;1.90;;;27.30;99.90;;;;;;4914254;29;20213;-84
2022/06/16 07:43:40;;;;;;;3.88;2.17;;;27.00;99.90;;;;;;4912569;29;20870;-87
2022/06/16 07:46:08;;;;;;;3.30;2.08;;;27.40;99.90;;;;;;4912089;29;20230;-82
2022/06/16 07:48:35;;;;;;;3.00;1.55;;;27.40;99.90;;;;;;4912402;29;20203;-83
2022/06/16 07:51:02;;;;;;;4.03;1.95;;;27.80;99.90;;;;;;4911984;29;20214;-88
2022/06/16 07:53:30;;;;;;;4.00;1.92;;;27.80;99.90;;;;;;4913245;29;20259;-87
2022/06/16 07:55:57;;;;;;;3.97;1.80;;;28.00;99.90;;;;;;4913014;29;20270;-82
2022/06/16 07:58:29;;;;;;;5.10;2.15;;;28.30;99.90;;;;;;4914593;29;20206;-85
2022/06/16 08:00:56;;;;;;;3.33;1.65;;;28.20;99.90;;;;;;4912379;29;20219;-87
2022/06/16 08:03:27;;;;;;;3.15;1.52;;;28.10;99.90;;;;;;4895595;29;20195;-86
2022/06/16 08:05:54;;;;;;;3.40;1.80;;;28.30;99.90;;;;;;4899476;29;20229;-83
2022/06/16 08:08:23;;;;;;;2.35;1.55;;;28.70;99.90;;;;;;4911798;29;20202;-81
2022/06/16 08:10:52;;;;;;;3.22;1.70;;;28.60;99.90;;;;;;4909897;29;20627;-81
2022/06/16 08:13:20;;;;;;;3.35;1.90;;;29.00;99.90;;;;;;4910977;29;20211;-82
2022/06/16 08:15:48;;;;;;;2.13;1.70;;;29.00;99.90;;;;;;4910315;29;20203;-83
2022/06/16 08:18:17;;;;;;;2.67;1.73;;;29.50;99.90;;;;;;4905306;29;20238;-81
2022/06/16 08:20:45;;;;;;;3.72;1.77;;;29.60;99.90;;;;;;4894227;29;20207;-84
2022/06/16 08:23:12;;;;;;;1.88;1.42;;;29.50;99.90;;;;;;4885412;29;20208;-83
2022/06/16 08:25:42;;;;;;;3.28;1.88;;;29.60;99.90;;;;;;4895076;29;20227;-83
2022/06/16 08:28:12;;;;;;;5.00;1.77;;;29.50;99.90;;;;;;4920622;29;20214;-83
2022/06/16 08:30:44;;;;;;;2.45;1.80;;;29.60;99.90;;;;;;4923847;29;20234;-83
2022/06/16 08:33:13;;;;;;;4.40;2.10;;;29.70;99.90;;;;;;4919266;29;20202;-83
2022/06/16 08:35:41;;;;;;;3.70;1.88;;;29.40;99.90;;;;;;4910491;29;20215;-84
2022/06/16 08:38:08;;;;;;;2.90;1.67;;;29.80;99.90;;;;;;4899382;29;20234;-83
2022/06/16 08:40:40;;;;;;;2.67;1.67;;;30.00;99.90;;;;;;4899117;29;20275;-84
2022/06/16 08:43:15;;;;;;;3.40;1.83;;;29.90;99.90;;;;;;4893205;29;20734;-80
2022/06/16 08:45:51;;;;;;;4.03;1.70;;;30.10;99.90;;;;;;4891419;29;20309;-82
2022/06/16 08:48:26;;;;;;;4.45;1.95;;;30.00;99.90;;;;;;4904603;29;20238;-83
2022/06/16 08:50:57;;;;;;;3.97;1.92;;;29.70;99.90;;;;;;4899800;29;20584;-83
2022/06/16 08:53:45;;;;;;;2.28;1.60;;;29.90;99.90;;;;;;4892214;29;20229;-86
2022/06/16 08:56:18;;;;;;;3.95;2.10;;;30.10;99.90;;;;;;4885361;29;20207;-84
2022/06/16 08:58:54;;;;;;;4.72;2.10;;;29.90;99.90;;;;;;4892757;29;20195;-85
2022/06/16 09:01:24;;;;;;;3.08;2.13;;;30.00;99.90;;;;;;4891022;29;20187;-85
2022/06/16 09:04:00;;;;;;;2.83;1.95;;;29.70;99.90;;;;;;4889792;29;20929;-83
2022/06/16 09:06:38;;;;;;;3.35;2.20;;;29.50;99.90;;;;;;4900279;29;20214;-82
2022/06/16 09:09:14;;;;;;;3.85;2.17;;;29.60;99.90;;;;;;4909293;29;20210;-82
2022/06/16 09:11:51;;;;;;;4.13;2.20;;;29.50;99.90;;;;;;4896951;29;20210;-86
2022/06/16 09:17:31;;;;;;;2.35;1.98;;;29.60;99.90;;;;;;4885168;29;20222;-86
2022/06/16 09:20:09;;;;;;;2.28;1.85;;;29.80;99.90;;;;;;4891912;29;20195;-84
2022/06/16 09:22:51;;;;;;;2.15;1.77;;;29.90;99.90;;;;;;4902904;29;20507;-87
2022/06/16 09:25:35;;;;;;;3.72;2.25;;;30.20;99.90;;;;;;4890576;29;20196;-82
2022/06/16 09:28:09;;;;;;;2.72;1.83;;;30.70;99.90;;;;;;4897247;29;20214;-83
2022/06/16 09:30:41;;;;;;;4.60;1.95;;;30.70;99.90;;;;;;4897758;29;20219;-82
2022/06/16 09:33:14;;;;;;;4.10;2.25;;;31.00;99.90;;;;;;4919253;29;20301;-82
2022/06/16 09:35:46;;;;;;;2.97;2.00;;;31.30;99.90;;;;;;4926711;29;20230;-82
2022/06/16 09:38:17;;;;;;;5.45;2.20;;;31.20;99.90;;;;;;4924526;29;20681;-81
2022/06/16 09:40:49;;;;;;;3.40;2.10;;;30.40;99.90;;;;;;4907705;29;20207;-83
2022/06/16 09:43:22;;;;;;;3.55;2.30;;;29.90;99.90;;;;;;4908459;29;20617;-82
2022/06/16 09:45:55;;;;;;;5.03;2.50;;;29.90;99.90;;;;;;4907270;29;20237;-82
2022/06/16 09:48:27;;;;;;;4.78;2.30;;;29.80;99.90;;;;;;4892071;29;20314;-81
2022/06/16 09:51:02;;;;;;;7.07;2.40;;;29.80;99.90;;;;;;4889047;29;20230;-82
2022/06/16 09:53:35;;;;;;;3.88;2.40;;;29.80;99.90;;;;;;4888463;29;20222;-80
2022/06/16 09:56:06;;;;;;;6.38;2.80;;;29.60;99.90;;;;;;4889395;29;20312;-85
2022/06/16 09:58:37;;;;;;;4.35;2.55;;;29.50;99.90;;;;;;4895936;29;20724;-80
2022/06/16 10:01:08;;;;;;;5.95;2.67;;;29.30;99.90;;;;;;4922068;29;20214;-80
2022/06/16 10:03:40;;;;;;;6.18;3.00;;;29.20;99.90;;;;;;4911178;29;20261;-82
2022/06/16 10:06:17;;;;;;;5.85;2.95;;;29.30;99.90;;;;;;4909728;29;20694;-80
2022/06/16 10:08:52;;;;;;;5.35;2.85;;;28.90;99.90;;;;;;4908841;29;20211;-80
2022/06/16 10:11:31;;;;;;;7.15;3.60;;;28.80;99.90;;;;;;4910225;29;20218;-81
2022/06/16 10:14:07;;;;;;;5.45;2.67;;;28.80;99.90;;;;;;4911216;29;20214;-82
2022/06/16 10:16:46;;;;;;;7.90;3.88;;;28.90;99.90;;;;;;4911202;29;20236;-83
2022/06/16 10:19:13;;;;;;;5.00;3.28;;;28.80;99.90;;;;;;4921714;29;20223;-82
2022/06/16 10:21:40;;;;;;;8.15;3.63;;;28.90;99.90;;;;;;4929958;29;20281;-82
2022/06/16 10:24:08;;;;;;;6.32;2.78;;;29.10;99.90;;;;;;4930664;29;20232;-81
2022/06/16 10:26:35;;;;;;;7.32;3.75;;;29.00;99.90;;;;;;4913448;29;20239;-82
2022/06/16 10:29:07;;;;;;;3.17;2.72;;;29.10;99.90;;;;;;4891860;29;20821;-82
2022/06/16 10:31:40;;;;;;;5.20;3.40;;;29.10;99.90;;;;;;4917782;29;20210;-82
2022/06/16 10:34:18;;;;;;;5.18;3.25;;;29.00;99.90;;;;;;4922337;29;20213;-82
2022/06/16 10:36:54;;;;;;;6.53;3.00;;;28.90;99.90;;;;;;4929092;29;20210;-81
2022/06/16 10:39:23;;;;;;;6.25;3.45;;;28.90;99.90;;;;;;4891737;29;20227;-80
2022/06/16 10:41:55;;;;;;;6.43;3.45;;;28.90;99.90;;;;;;4891492;29;20774;-79
2022/06/16 10:44:25;;;;;;;5.57;3.47;;;28.90;99.90;;;;;;4908334;29;20622;-79
2022/06/16 10:46:56;;;;;;;5.05;3.40;;;28.90;99.90;;;;;;4902802;29;20664;-80
2022/06/16 10:49:28;;;;;;;4.57;3.10;;;28.90;99.90;;;;;;4891724;29;20249;-81
2022/06/16 10:51:58;;;;;;;5.57;3.50;;;29.00;99.90;;;;;;4924965;29;20297;-82
2022/06/16 10:54:31;;;;;;;6.20;3.30;;;29.10;99.90;;;;;;4929045;29;20240;-80
2022/06/16 10:57:16;;;;;;;7.30;3.80;;;29.40;99.90;;;;;;4905727;29;20207;-82
2022/06/16 10:59:48;;;;;;;4.90;3.00;;;29.40;99.90;;;;;;4908422;29;20293;-82
2022/06/16 11:02:25;;;;;;;3.95;2.75;;;29.50;99.90;;;;;;4909475;29;20207;-82
2022/06/16 11:04:59;;;;;;;4.57;3.17;;;29.50;99.90;;;;;;4910705;29;20221;-80
2022/06/16 11:07:30;;;;;;;5.03;2.97;;;29.50;99.90;;;;;;4909013;29;20241;-81
2022/06/16 11:10:06;;;;;;;8.27;3.25;;;29.40;99.90;;;;;;4891714;29;20534;-86
2022/06/16 11:12:36;;;;;;;4.20;2.95;;;29.40;99.90;;;;;;4894345;29;20207;-81
2022/06/16 11:15:06;;;;;;;5.38;3.00;;;29.40;99.90;;;;;;4911226;29;20210;-84
2022/06/16 11:17:40;;;;;;;8.23;3.88;;;29.30;99.90;;;;;;4907044;29;20209;-85
2022/06/16 11:20:17;;;;;;;6.38;3.35;;;29.30;99.90;;;;;;4892901;29;20294;-83
2022/06/16 11:22:47;;;;;;;4.38;2.80;;;28.90;99.90;;;;;;4893375;29;20816;-86
2022/06/16 11:25:20;;;;;;;5.28;3.05;;;28.80;99.90;;;;;;4892196;29;20218;-81
2022/06/16 11:27:49;;;;;;;3.97;2.40;;;28.80;99.90;;;;;;4894640;29;20230;-81
2022/06/16 11:30:36;;;;;;;4.72;3.25;;;29.00;99.90;;;;;;4892549;29;20207;-80
2022/06/16 11:33:06;;;;;;;5.93;3.00;;;29.10;99.90;;;;;;4892227;29;20299;-83
2022/06/16 11:35:40;;;;;;;6.38;3.20;;;29.10;99.90;;;;;;4892778;29;20204;-83
2022/06/16 11:38:16;;;;;;;4.38;2.85;;;29.00;99.90;;;;;;4892441;29;20294;-81
2022/06/16 11:40:48;;;;;;;5.47;2.78;;;28.80;99.90;;;;;;4892014;29;20192;-81
2022/06/16 11:43:28;;;;;;;3.60;2.53;;;28.80;99.90;;;;;;4896472;29;20203;-80
2022/06/16 11:46:01;;;;;;;5.80;3.25;;;28.70;99.90;;;;;;4910769;29;20289;-80
2022/06/16 11:48:39;;;;;;;6.40;3.35;;;28.80;99.90;;;;;;4910206;29;20251;-82
2022/06/16 11:51:13;;;;;;;5.72;3.08;;;28.60;99.90;;;;;;4895698;29;20202;-81
2022/06/16 11:53:51;;;;;;;6.20;3.17;;;28.70;99.90;;;;;;4915469;29;20384;-82
2022/06/16 11:56:32;;;;;;;4.55;2.67;;;28.60;99.90;;;;;;4901954;29;20601;-81
2022/06/16 11:59:21;;;;;;;6.57;3.15;;;28.70;99.90;;;;;;4928728;29;20261;-81
2022/06/16 12:01:52;;;;;;;6.50;2.75;;;28.80;99.90;;;;;;4922578;29;20604;-82
2022/06/16 12:04:45;;;;;;;3.50;2.20;;;28.40;99.90;;;;;;4910366;29;20502;-80
2022/06/16 12:07:30;;;;;;;4.85;2.78;;;28.40;99.90;;;;;;4909441;29;20326;-83
2022/06/16 12:10:05;;;;;;;3.22;2.30;;;28.50;99.90;;;;;;4911690;29;20224;-85
2022/06/16 12:12:38;;;;;;;4.93;2.30;;;28.60;99.90;;;;;;4906263;29;20206;-84
2022/06/16 12:15:16;;;;;;;5.60;2.83;;;28.70;99.90;;;;;;4891446;29;20612;-81
2022/06/16 12:17:51;;;;;;;4.82;2.40;;;28.80;99.90;;;;;;4892375;29;20215;-81
2022/06/16 12:20:27;;;;;;;4.63;2.60;;;28.80;99.90;;;;;;4908178;29;20217;-84
2022/06/16 12:22:59;;;;;;;4.13;2.80;;;28.90;99.90;;;;;;4900677;29;20225;-80
2022/06/16 12:25:31;;;;;;;4.13;2.55;;;29.00;99.90;;;;;;4909156;29;20214;-81
2022/06/16 12:28:03;;;;;;;4.15;2.47;;;29.10;99.90;;;;;;4891458;29;20235;-80
2022/06/16 12:30:37;;;;;;;5.00;2.42;;;29.30;99.90;;;;;;4890029;29;20222;-80
2022/06/16 12:33:11;;;;;;;2.90;2.28;;;29.20;99.90;;;;;;4889814;29;20223;-81
2022/06/16 12:35:46;;;;;;;4.57;2.42;;;29.20;99.90;;;;;;4889820;29;20219;-80
2022/06/16 12:38:18;;;;;;;5.10;3.38;;;29.30;99.90;;;;;;4894990;29;20214;-81
2022/06/16 12:40:51;;;;;;;3.60;2.80;;;29.30;99.90;;;;;;4908466;29;20214;-83
2022/06/16 12:43:22;;;;;;;4.35;2.70;;;29.00;99.90;;;;;;4908478;29;20346;-81
2022/06/16 12:45:54;;;;;;;6.45;2.70;;;29.10;99.90;;;;;;4907619;29;20214;-81
2022/06/16 12:48:27;;;;;;;3.83;2.42;;;29.00;99.90;;;;;;4906676;29;20375;-82
2022/06/16 12:50:58;;;;;;;4.85;2.65;;;28.90;99.90;;;;;;4890154;29;20254;-83
2022/06/16 12:53:29;;;;;;;4.95;2.80;;;29.00;99.90;;;;;;4890839;29;20374;-85
2022/06/16 12:56:03;;;;;;;3.97;2.22;;;29.10;99.90;;;;;;4890111;29;20310;-83
2022/06/16 12:58:34;;;;;;;5.03;2.90;;;29.30;99.90;;;;;;4907793;29;20223;-82
2022/06/16 13:01:05;;;;;;;4.70;2.80;;;29.60;99.90;;;;;;4909606;29;20337;-82
2022/06/16 13:03:36;;;;;;;3.08;2.72;;;29.70;99.90;;;;;;4907508;29;20214;-81
2022/06/16 13:06:06;;;;;;;5.70;2.70;;;29.60;99.90;;;;;;4907158;29;20616;-80
2022/06/16 13:08:38;;;;;;;4.15;2.70;;;29.40;99.90;;;;;;4888530;29;20238;-80
2022/06/16 13:11:09;;;;;;;6.28;3.17;;;29.50;99.90;;;;;;4889837;29;20219;-82
2022/06/16 13:13:40;;;;;;;7.57;3.30;;;29.60;99.90;;;;;;4891134;29;20210;-82
2022/06/16 13:16:09;;;;;;;4.90;2.85;;;29.20;99.90;;;;;;4889998;29;20216;-82
2022/06/16 13:18:45;;;;;;;4.72;2.90;;;28.80;99.90;;;;;;4890518;29;20881;-80
2022/06/16 13:21:23;;;;;;;3.03;2.60;;;28.90;99.90;;;;;;4892173;29;20214;-81
2022/06/16 13:23:55;;;;;;;6.05;2.95;;;28.80;99.90;;;;;;4890998;29;20215;-81
2022/06/16 13:26:26;;;;;;;3.72;2.60;;;28.40;99.90;;;;;;4890743;29;20214;-83
2022/06/16 13:29:08;;;;;;;4.72;3.10;;;28.40;99.90;;;;;;4899643;29;20997;-84
2022/06/16 13:31:57;;;;;;;5.93;3.05;;;28.30;99.90;;;;;;4908330;29;20229;-82